Time;durP1;ratioP1;P1;durP2;ratioP2;P2;SDS_P1;SDS_P2;PMS_P1;PMS_P2;Temp;Humidity;BMP_temperature;BMP_pressure;BME280_temperature;BME280_humidity;BME280_pressure;Samples;Min_cycle;Max_cycle;Signal;HPM_P1;HPM_P2
2023/06/29 00:00:21;;;;;;;4.90;4.40;;;;;;;17.41;100.00;93987.34;5073618;28;20482;-73
2023/06/29 00:02:48;;;;;;;5.18;4.60;;;;;;;17.35;100.00;93972.25;5071164;28;20108;-73
2023/06/29 00:05:13;;;;;;;6.57;4.22;;;;;;;17.32;100.00;93949.59;5072346;28;20116;-73
2023/06/29 00:07:39;;;;;;;4.97;4.43;;;;;;;17.28;100.00;93963.56;5070706;28;20052;-73
2023/06/29 00:10:05;;;;;;;6.00;4.25;;;;;;;17.25;100.00;93950.75;5081246;28;20032;-73
2023/06/29 00:12:31;;;;;;;5.13;4.25;;;;;;;17.19;100.00;93939.16;5068740;28;20499;-73
2023/06/29 00:14:56;;;;;;;4.72;4.32;;;;;;;17.08;100.00;93916.81;5069385;28;20016;-73
2023/06/29 00:17:22;;;;;;;5.45;4.35;;;;;;;17.04;100.00;93886.41;5074087;28;20082;-73
2023/06/29 00:19:47;;;;;;;5.28;4.63;;;;;;;17.03;100.00;93871.50;5073934;28;20058;-72
2023/06/29 00:22:17;;;;;;;5.55;4.65;;;;;;;17.03;100.00;93872.31;5073440;28;20024;-73
2023/06/29 00:24:42;;;;;;;5.15;4.45;;;;;;;16.99;100.00;93865.81;5072618;28;20037;-73
2023/06/29 00:27:12;;;;;;;5.28;4.20;;;;;;;17.01;100.00;93849.63;5073723;28;20017;-73
2023/06/29 00:29:41;;;;;;;4.35;3.95;;;;;;;17.04;100.00;93867.78;5069667;28;20012;-73
2023/06/29 00:32:08;;;;;;;5.82;4.93;;;;;;;17.04;100.00;93862.47;5071608;28;20107;-73
2023/06/29 00:34:33;;;;;;;5.70;4.53;;;;;;;16.97;100.00;93851.09;5060788;28;20059;-72
2023/06/29 00:36:58;;;;;;;6.05;4.68;;;;;;;16.94;100.00;93848.91;5067699;28;20049;-73
2023/06/29 00:39:24;;;;;;;4.90;4.47;;;;;;;16.95;100.00;93842.56;5075867;28;20020;-73
2023/06/29 00:41:55;;;;;;;6.68;4.75;;;;;;;16.97;100.00;93837.81;5068663;28;20111;-73
2023/06/29 00:44:22;;;;;;;7.53;4.65;;;;;;;16.94;100.00;93847.03;5065706;28;20138;-73
2023/06/29 00:46:49;;;;;;;5.47;4.38;;;;;;;16.92;100.00;93854.44;5073834;28;20033;-73
2023/06/29 00:49:15;;;;;;;6.68;4.80;;;;;;;16.92;100.00;93825.19;5063967;28;20112;-73
2023/06/29 00:51:41;;;;;;;8.25;4.90;;;;;;;16.94;100.00;93819.66;5070488;28;20109;-73
2023/06/29 00:54:06;;;;;;;7.10;4.57;;;;;;;16.90;100.00;93772.25;5062182;28;20047;-73
2023/06/29 00:56:33;;;;;;;5.75;4.22;;;;;;;16.87;100.00;93743.50;5070294;28;20032;-73
2023/06/29 00:58:59;;;;;;;5.32;4.30;;;;;;;16.86;100.00;93730.44;5071564;28;20074;-73
2023/06/29 01:01:24;;;;;;;5.50;4.65;;;;;;;16.84;100.00;93719.25;5066586;28;20029;-73
2023/06/29 01:03:50;;;;;;;5.78;4.70;;;;;;;16.84;100.00;93697.97;5070574;28;20104;-73
2023/06/29 01:06:22;;;;;;;5.30;4.55;;;;;;;16.77;100.00;93650.25;5070085;28;20051;-73
2023/06/29 01:08:52;;;;;;;6.80;5.10;;;;;;;16.72;100.00;93650.16;5072768;28;20055;-73
2023/06/29 01:11:19;;;;;;;5.25;4.43;;;;;;;16.69;100.00;93635.47;5066683;28;20042;-73
2023/06/29 01:13:46;;;;;;;4.97;4.47;;;;;;;16.65;100.00;93606.94;5066479;28;20032;-73
2023/06/29 01:16:14;;;;;;;5.43;4.82;;;;;;;16.64;100.00;93607.97;5068998;28;20028;-73
2023/06/29 01:18:43;;;;;;;4.97;4.35;;;;;;;16.60;100.00;93613.75;5064013;28;20024;-73
2023/06/29 01:21:09;;;;;;;5.60;5.10;;;;;;;16.56;100.00;93595.84;5077510;28;20056;-73
2023/06/29 01:23:38;;;;;;;9.98;4.70;;;;;;;16.50;100.00;93554.28;5061228;28;20499;-73
2023/06/29 01:26:05;;;;;;;6.47;4.50;;;;;;;16.49;100.00;93537.53;5070109;28;20021;-73
2023/06/29 01:28:32;;;;;;;6.25;4.78;;;;;;;16.50;100.00;93528.53;5068035;28;20074;-72
2023/06/29 01:31:02;;;;;;;5.22;4.40;;;;;;;16.49;100.00;93488.91;5061845;28;20047;-73
2023/06/29 01:33:29;;;;;;;9.35;4.80;;;;;;;16.51;100.00;93457.63;5071263;28;20033;-73
2023/06/29 01:36:13;;;;;;;6.13;4.82;;;;;;;16.52;100.00;93460.06;5069412;28;20031;-73
2023/06/29 01:38:54;;;;;;;6.00;4.97;;;;;;;16.48;100.00;93464.22;5068871;28;20029;-73
2023/06/29 01:41:23;;;;;;;7.53;4.45;;;;;;;16.43;100.00;93434.88;5061838;28;20016;-73
2023/06/29 01:43:49;;;;;;;6.55;4.70;;;;;;;16.43;100.00;93403.00;5063650;28;20056;-73
2023/06/29 01:46:16;;;;;;;4.90;4.45;;;;;;;16.42;100.00;93364.22;5063819;28;20029;-73
2023/06/29 01:48:41;;;;;;;6.03;4.80;;;;;;;16.44;100.00;93349.69;5071102;28;20033;-73
2023/06/29 01:51:08;;;;;;;8.48;4.90;;;;;;;16.40;100.00;93324.66;5067085;28;20088;-72
2023/06/29 01:53:37;;;;;;;7.15;5.10;;;;;;;16.38;100.00;93302.03;5067300;28;20035;-73
2023/06/29 01:56:02;;;;;;;7.10;4.80;;;;;;;16.41;100.00;93294.41;5070345;28;20028;-73
2023/06/29 01:58:28;;;;;;;8.98;4.97;;;;;;;16.39;100.00;93275.25;5069646;28;20035;-73
2023/06/29 02:00:53;;;;;;;5.80;4.82;;;;;;;16.36;100.00;93267.75;5066139;28;20035;-73
2023/06/29 02:03:19;;;;;;;5.45;4.60;;;;;;;16.31;100.00;93272.97;5070716;28;20073;-73
2023/06/29 02:05:44;;;;;;;5.85;5.07;;;;;;;16.28;100.00;93287.53;5060548;28;20050;-72
2023/06/29 02:08:11;;;;;;;6.53;5.03;;;;;;;16.30;100.00;93269.50;5070195;28;20032;-73
2023/06/29 02:10:36;;;;;;;5.25;4.85;;;;;;;16.30;100.00;93232.34;5064407;28;20025;-72
2023/06/29 02:13:02;;;;;;;5.05;4.65;;;;;;;16.32;100.00;93214.31;5071581;28;20035;-72
2023/06/29 02:15:27;;;;;;;5.60;4.60;;;;;;;16.28;100.00;93143.34;5069998;28;20017;-72
2023/06/29 02:17:53;;;;;;;5.63;4.63;;;;;;;16.25;100.00;93128.72;5065636;28;20048;-73
2023/06/29 02:20:18;;;;;;;7.85;4.75;;;;;;;16.17;100.00;93121.13;5067905;28;20374;-73
2023/06/29 02:22:44;;;;;;;6.88;5.18;;;;;;;16.10;100.00;93096.63;5068862;28;20048;-73
2023/06/29 02:25:13;;;;;;;6.85;4.63;;;;;;;16.04;100.00;93054.06;5061260;28;20107;-73
2023/06/29 02:27:38;;;;;;;5.18;4.63;;;;;;;16.04;100.00;93040.00;5067032;28;20032;-72
2023/06/29 02:30:04;;;;;;;5.97;4.65;;;;;;;16.03;100.00;93025.94;5070296;28;20032;-72
2023/06/29 02:32:30;;;;;;;8.23;4.65;;;;;;;16.04;100.00;92998.34;5059548;28;20118;-72
2023/06/29 02:34:55;;;;;;;7.20;4.80;;;;;;;16.02;100.00;92996.97;5067715;28;20079;-72
2023/06/29 02:37:20;;;;;;;5.80;4.90;;;;;;;15.99;100.00;92998.25;5071992;28;20420;-73
2023/06/29 02:39:46;;;;;;;7.35;5.07;;;;;;;15.98;100.00;92987.91;5073309;28;20055;-73
2023/06/29 02:42:11;;;;;;;5.43;4.90;;;;;;;15.94;100.00;92946.97;5068760;28;20040;-73
2023/06/29 02:44:37;;;;;;;6.80;5.03;;;;;;;15.88;100.00;92924.84;5073067;28;20040;-73
2023/06/29 02:47:02;;;;;;;7.50;4.60;;;;;;;15.88;100.00;92890.34;5065102;28;20028;-73
2023/06/29 02:49:28;;;;;;;6.10;4.75;;;;;;;15.84;100.00;92857.41;5067522;28;20032;-73
2023/06/29 02:51:53;;;;;;;7.90;5.38;;;;;;;15.84;100.00;92813.09;5063321;28;20024;-73
2023/06/29 02:54:18;;;;;;;5.53;4.68;;;;;;;15.84;100.00;92735.38;5074297;28;20027;-73
2023/06/29 02:56:44;;;;;;;5.75;5.05;;;;;;;15.85;100.00;92689.25;5081644;28;20070;-73
2023/06/29 02:59:09;;;;;;;7.65;5.00;;;;;;;15.87;100.00;92681.84;5063279;28;20031;-73
2023/06/29 03:01:34;;;;;;;7.53;4.90;;;;;;;15.83;100.00;92689.47;5063491;28;20112;-73
2023/06/29 03:04:00;;;;;;;11.27;5.30;;;;;;;15.84;100.00;92703.56;5067331;28;20025;-73
2023/06/29 03:06:25;;;;;;;8.05;5.00;;;;;;;15.82;100.00;92689.75;5068777;28;20017;-73
2023/06/29 03:08:51;;;;;;;6.13;4.65;;;;;;;15.83;100.00;92670.13;5068451;28;20028;-73
2023/06/29 03:11:16;;;;;;;6.50;5.30;;;;;;;15.80;100.00;92647.53;5072060;28;20024;-73
2023/06/29 03:13:41;;;;;;;6.55;4.80;;;;;;;15.78;100.00;92630.28;5071087;28;20068;-73
2023/06/29 03:16:07;;;;;;;5.32;4.82;;;;;;;15.79;100.00;92578.81;5068740;28;20103;-73
2023/06/29 03:18:32;;;;;;;6.25;5.50;;;;;;;15.78;100.00;92577.22;5073491;28;20028;-73
2023/06/29 03:20:58;;;;;;;8.00;5.47;;;;;;;15.73;100.00;92592.03;5061744;28;20024;-72
2023/06/29 03:23:23;;;;;;;8.25;5.30;;;;;;;15.73;100.00;92601.88;5067294;28;20109;-74
2023/06/29 03:25:48;;;;;;;6.40;5.60;;;;;;;15.73;100.00;92576.13;5066259;28;20020;-73
2023/06/29 03:28:14;;;;;;;6.15;5.43;;;;;;;15.74;100.00;92574.28;5066683;28;20031;-73
2023/06/29 03:30:39;;;;;;;7.80;5.57;;;;;;;15.75;100.00;92562.63;5062622;28;20025;-74
2023/06/29 03:33:05;;;;;;;5.88;5.28;;;;;;;15.73;100.00;92560.22;5070548;28;20013;-73
2023/06/29 03:35:30;;;;;;;7.32;5.38;;;;;;;15.75;100.00;92575.91;5073687;28;20036;-73
2023/06/29 03:37:55;;;;;;;5.90;5.40;;;;;;;15.71;100.00;92578.22;5058158;28;20016;-73
2023/06/29 03:40:21;;;;;;;8.95;5.25;;;;;;;15.60;100.00;92577.31;5065586;28;20397;-73
2023/06/29 03:42:46;;;;;;;5.95;5.22;;;;;;;15.58;100.00;92590.03;5057291;28;20060;-73
2023/06/29 03:45:12;;;;;;;5.78;5.28;;;;;;;15.62;100.00;92595.66;5054926;28;20541;-73
2023/06/29 03:47:37;;;;;;;7.25;6.28;;;;;;;15.60;100.00;92592.44;5058155;28;20150;-73
2023/06/29 03:50:03;;;;;;;6.38;5.43;;;;;;;15.53;100.00;92602.44;5069533;28;20088;-73
2023/06/29 03:52:29;;;;;;;6.38;5.28;;;;;;;15.53;100.00;92573.28;5073691;28;20089;-73
2023/06/29 03:54:54;;;;;;;8.60;5.15;;;;;;;15.54;100.00;92551.00;5063576;28;20021;-73
2023/06/29 03:57:20;;;;;;;5.55;5.10;;;;;;;15.52;100.00;92553.09;5057998;28;20075;-73
2023/06/29 03:59:45;;;;;;;10.95;5.65;;;;;;;15.51;100.00;92578.84;5059259;28;20490;-73
2023/06/29 04:02:10;;;;;;;5.70;5.10;;;;;;;15.50;100.00;92587.84;5061211;28;20051;-72
2023/06/29 04:04:36;;;;;;;5.88;5.28;;;;;;;15.50;100.00;92584.38;5068075;28;20460;-73
2023/06/29 04:07:01;;;;;;;6.45;5.72;;;;;;;15.51;100.00;92570.06;5060877;28;20031;-73
2023/06/29 04:09:27;;;;;;;10.45;5.03;;;;;;;15.51;100.00;92541.72;5081485;28;20020;-73
2023/06/29 04:11:52;;;;;;;6.75;5.57;;;;;;;15.49;100.00;92527.91;5063805;28;20025;-73
2023/06/29 04:14:17;;;;;;;6.70;5.05;;;;;;;15.45;100.00;92537.41;5068724;28;20068;-75
2023/06/29 04:16:43;;;;;;;7.13;5.40;;;;;;;15.45;100.00;92548.81;5058805;28;20025;-75
2023/06/29 04:19:08;;;;;;;6.22;5.30;;;;;;;15.39;100.00;92541.06;5071822;28;20028;-74
2023/06/29 04:21:33;;;;;;;9.15;5.45;;;;;;;15.42;100.00;92522.81;5073375;28;20060;-74
2023/06/29 04:23:59;;;;;;;9.25;5.63;;;;;;;15.44;100.00;92501.34;5060937;28;20051;-74
2023/06/29 04:26:27;;;;;;;6.35;5.45;;;;;;;15.50;100.00;92492.41;5075351;28;20025;-74
2023/06/29 04:29:00;;;;;;;7.72;5.32;;;;;;;15.56;100.00;92493.22;5061909;28;20544;-74
2023/06/29 04:31:28;;;;;;;10.50;5.30;;;;;;;15.60;100.00;92497.00;5072229;28;20052;-74
2023/06/29 04:33:53;;;;;;;11.38;6.43;;;;;;;15.56;100.00;92491.38;5062635;28;21049;-74
2023/06/29 04:36:19;;;;;;;9.50;5.78;;;;;;;15.57;100.00;92503.59;5067312;28;20040;-74
2023/06/29 04:38:45;;;;;;;8.50;5.30;;;;;;;15.61;100.00;92507.34;5074340;28;20044;-74
2023/06/29 04:41:11;;;;;;;6.35;5.65;;;;;;;15.65;100.00;92505.00;5072943;28;20048;-74
2023/06/29 04:43:36;;;;;;;5.90;5.35;;;;;;;15.69;100.00;92507.94;5058868;28;20080;-74
2023/06/29 04:46:02;;;;;;;9.70;6.15;;;;;;;15.76;100.00;92500.59;5062952;28;20118;-74
2023/06/29 04:48:37;;;;;;;12.35;5.90;;;;;;;15.73;100.00;92496.56;5067216;28;20017;-74
2023/06/29 04:51:05;;;;;;;14.45;6.40;;;;;;;15.78;100.00;92477.25;5069940;28;20618;-74
2023/06/29 04:53:34;;;;;;;11.65;6.15;;;;;;;15.80;100.00;92480.47;5066340;28;20032;-74
2023/06/29 04:56:01;;;;;;;8.43;5.70;;;;;;;15.82;100.00;92490.81;5062850;28;20104;-74
2023/06/29 04:58:27;;;;;;;6.20;5.45;;;;;;;15.86;100.00;92494.56;5059364;28;20036;-74
2023/06/29 05:00:56;;;;;;;6.53;5.88;;;;;;;15.91;100.00;92515.84;5073536;28;20570;-74
2023/06/29 05:03:24;;;;;;;9.18;5.70;;;;;;;15.93;100.00;92511.09;5061037;28;20075;-74
2023/06/29 05:05:49;;;;;;;6.25;5.65;;;;;;;15.98;100.00;92508.47;5065261;28;20150;-74
2023/06/29 05:08:15;;;;;;;5.85;5.32;;;;;;;16.09;100.00;92482.03;5066576;28;20103;-74
2023/06/29 05:10:41;;;;;;;12.10;6.00;;;;;;;16.17;100.00;92476.25;5075442;28;20032;-74
2023/06/29 05:13:06;;;;;;;13.05;6.63;;;;;;;16.22;100.00;92476.25;5072627;28;20036;-74
2023/06/29 05:15:32;;;;;;;9.70;5.85;;;;;;;16.31;100.00;92482.72;5074318;28;20989;-74
2023/06/29 05:17:57;;;;;;;7.28;5.90;;;;;;;16.42;100.00;92512.78;5074088;28;20028;-72
2023/06/29 05:20:22;;;;;;;8.32;5.53;;;;;;;16.53;100.00;92534.88;5065976;28;20538;-72
2023/06/29 05:22:48;;;;;;;10.27;6.03;;;;;;;16.64;100.00;92534.91;5075126;28;20679;-72
2023/06/29 05:25:14;;;;;;;8.45;6.18;;;;;;;16.79;100.00;92547.47;5064726;28;20025;-72
2023/06/29 05:27:43;;;;;;;8.90;6.00;;;;;;;16.92;100.00;92615.31;5077769;28;20039;-72
2023/06/29 05:30:09;;;;;;;7.75;5.80;;;;;;;17.01;100.00;92696.97;5075308;28;20031;-72
2023/06/29 05:32:35;;;;;;;8.45;5.70;;;;;;;17.14;100.00;92783.47;5073307;28;20101;-73
2023/06/29 05:35:01;;;;;;;7.80;5.65;;;;;;;17.22;100.00;92808.75;5071662;28;20012;-73
2023/06/29 05:37:27;;;;;;;8.48;5.45;;;;;;;17.31;100.00;92814.41;5076014;28;20024;-72
2023/06/29 05:39:54;;;;;;;6.22;5.60;;;;;;;17.38;100.00;92780.44;5072655;28;20025;-72
2023/06/29 05:42:19;;;;;;;8.75;5.28;;;;;;;17.44;100.00;92797.22;5075557;28;20131;-72
2023/06/29 05:44:45;;;;;;;10.30;5.93;;;;;;;17.51;100.00;92816.44;5074254;28;20051;-72
2023/06/29 05:47:10;;;;;;;6.68;5.68;;;;;;;17.61;100.00;92855.59;5067987;28;20109;-71
2023/06/29 05:49:36;;;;;;;6.35;5.72;;;;;;;17.74;100.00;92876.41;5065234;28;20028;-71
2023/06/29 05:52:01;;;;;;;12.77;5.50;;;;;;;17.78;100.00;92898.00;5072478;28;20020;-71
2023/06/29 05:54:26;;;;;;;7.20;5.72;;;;;;;17.80;100.00;92892.44;5072712;28;20021;-70
2023/06/29 05:56:52;;;;;;;8.43;6.30;;;;;;;17.86;100.00;92888.75;5076693;28;20025;-72
2023/06/29 05:59:17;;;;;;;6.15;5.45;;;;;;;17.87;100.00;92938.25;5070381;28;20044;-75
2023/06/29 06:01:42;;;;;;;7.43;6.05;;;;;;;17.93;100.00;93003.75;5071538;28;20060;-72
2023/06/29 06:04:08;;;;;;;7.88;5.85;;;;;;;18.02;100.00;93057.38;5073472;28;20032;-74
2023/06/29 06:06:34;;;;;;;9.75;6.07;;;;;;;18.21;100.00;93112.91;5068055;28;20028;-76
2023/06/29 06:08:59;;;;;;;9.32;6.10;;;;;;;18.35;100.00;93153.25;5070976;28;20485;-76
2023/06/29 06:11:24;;;;;;;7.70;6.43;;;;;;;18.45;100.00;93178.09;5070234;28;20028;-76
2023/06/29 06:13:50;;;;;;;12.27;6.20;;;;;;;18.53;100.00;93213.34;5071090;28;20088;-77
2023/06/29 06:16:16;;;;;;;6.90;6.25;;;;;;;18.67;100.00;93219.03;5069841;28;20036;-76
2023/06/29 06:18:41;;;;;;;6.93;6.20;;;;;;;18.80;100.00;93231.19;5067184;28;20025;-80
2023/06/29 06:21:06;;;;;;;7.93;6.05;;;;;;;18.89;100.00;93237.63;5072559;28;20036;-80
2023/06/29 06:23:32;;;;;;;6.78;5.43;;;;;;;19.01;100.00;93250.81;5072706;28;20044;-79
2023/06/29 06:25:57;;;;;;;6.47;5.35;;;;;;;19.14;100.00;93252.25;5073953;28;20035;-80
2023/06/29 06:28:25;;;;;;;7.43;6.53;;;;;;;19.23;100.00;93236.59;5065271;28;20135;-77
2023/06/29 06:30:50;;;;;;;7.30;6.60;;;;;;;19.25;100.00;93248.63;5069213;28;20150;-79
2023/06/29 06:33:16;;;;;;;11.90;6.45;;;;;;;19.41;100.00;93222.84;5073830;28;20028;-78
2023/06/29 06:35:42;;;;;;;7.30;6.35;;;;;;;19.67;100.00;93225.66;5069167;28;20069;-78
2023/06/29 06:38:07;;;;;;;14.60;6.60;;;;;;;19.82;100.00;93242.81;5067227;28;20062;-78
2023/06/29 06:40:33;;;;;;;6.88;5.78;;;;;;;20.09;100.00;93231.22;5066309;28;20020;-79
2023/06/29 06:42:59;;;;;;;11.70;6.03;;;;;;;20.24;100.00;93274.00;5068242;28;20048;-79
2023/06/29 06:45:24;;;;;;;11.98;7.30;;;;;;;20.51;100.00;93357.72;5072366;28;20031;-79
2023/06/29 06:47:49;;;;;;;10.70;7.60;;;;;;;20.76;100.00;93381.06;5061434;28;20033;-79
2023/06/29 06:50:15;;;;;;;7.45;6.75;;;;;;;21.06;100.00;93426.94;5065318;28;20028;-79
2023/06/29 06:52:40;;;;;;;7.80;5.85;;;;;;;21.17;100.00;93482.88;5073333;28;20037;-79
2023/06/29 06:55:06;;;;;;;7.43;6.07;;;;;;;21.35;100.00;93486.16;5073404;28;20020;-79
2023/06/29 06:57:32;;;;;;;5.68;5.18;;;;;;;21.42;100.00;93534.88;5071954;28;20043;-80
2023/06/29 06:59:57;;;;;;;8.32;6.38;;;;;;;21.55;100.00;93530.88;5060591;28;20033;-80
2023/06/29 07:02:23;;;;;;;10.27;6.00;;;;;;;21.76;100.00;93549.72;5070440;28;20038;-79
2023/06/29 07:04:48;;;;;;;6.55;5.32;;;;;;;21.86;100.00;93615.88;5063589;28;20024;-80
2023/06/29 07:07:14;;;;;;;8.85;5.50;;;;;;;22.00;100.00;93597.44;5057476;28;20060;-80
2023/06/29 07:09:39;;;;;;;6.93;4.93;;;;;;;22.39;100.00;93652.41;5068554;28;20079;-81
2023/06/29 07:12:05;;;;;;;10.48;5.45;;;;;;;22.56;100.00;93736.13;5054012;28;20043;-80
2023/06/29 07:14:31;;;;;;;8.18;5.50;;;;;;;22.57;100.00;93736.94;5066845;28;20017;-80
2023/06/29 07:16:57;;;;;;;8.50;5.00;;;;;;;22.71;100.00;93670.19;5072042;28;20025;-80
2023/06/29 07:19:23;;;;;;;6.80;6.10;;;;;;;22.99;100.00;93657.31;5071001;28;20028;-81
2023/06/29 07:21:48;;;;;;;7.68;6.32;;;;;;;23.25;100.00;93659.94;5064726;28;20024;-81
2023/06/29 07:24:14;;;;;;;8.50;6.15;;;;;;;23.57;100.00;93666.91;5062601;28;20032;-79
2023/06/29 07:26:39;;;;;;;9.25;6.18;;;;;;;23.92;100.00;93710.03;5065030;28;20021;-78
2023/06/29 07:29:05;;;;;;;10.70;5.72;;;;;;;23.85;100.00;93778.25;5070616;28;20028;-79
2023/06/29 07:31:31;;;;;;;6.22;5.63;;;;;;;23.70;100.00;93859.69;5068024;28;20477;-78
2023/06/29 07:33:57;;;;;;;6.35;5.75;;;;;;;23.49;100.00;93861.59;5076086;28;20045;-78
2023/06/29 07:36:24;;;;;;;7.72;5.30;;;;;;;23.91;100.00;93842.75;5065386;28;20028;-78
2023/06/29 07:38:50;;;;;;;7.95;6.40;;;;;;;24.54;100.00;93904.19;5065785;28;20060;-78
2023/06/29 07:41:17;;;;;;;8.10;6.57;;;;;;;24.86;100.00;93972.97;5073119;28;20020;-78
2023/06/29 07:43:47;;;;;;;7.53;6.25;;;;;;;25.16;100.00;94025.13;5069348;28;20090;-78
2023/06/29 07:46:12;;;;;;;6.72;6.13;;;;;;;25.07;100.00;94007.91;5063798;28;20091;-78
2023/06/29 07:48:37;;;;;;;11.85;6.57;;;;;;;25.03;100.00;94029.19;5053584;28;20028;-78
2023/06/29 07:51:06;;;;;;;12.02;6.22;;;;;;;25.14;100.00;94070.34;5058418;28;20025;-78
2023/06/29 07:53:31;;;;;;;7.25;6.53;;;;;;;25.43;100.00;94091.25;5066657;28;20062;-78
2023/06/29 07:55:58;;;;;;;6.85;5.85;;;;;;;25.53;100.00;94152.41;5068963;28;20036;-78
2023/06/29 07:58:23;;;;;;;7.80;6.50;;;;;;;25.44;100.00;94194.44;5074478;28;20035;-79
2023/06/29 08:00:48;;;;;;;8.05;6.45;;;;;;;25.24;100.00;94157.56;5060636;28;20509;-79
2023/06/29 08:03:14;;;;;;;8.13;6.15;;;;;;;25.42;100.00;94170.47;5053796;28;20631;-78
2023/06/29 08:05:39;;;;;;;7.55;6.85;;;;;;;25.61;100.00;94210.31;5068686;28;20040;-78
2023/06/29 08:08:05;;;;;;;7.20;6.50;;;;;;;25.31;100.00;94168.84;5073800;28;20039;-78
2023/06/29 08:10:30;;;;;;;7.40;6.55;;;;;;;25.62;100.00;94249.66;5076606;28;20048;-78
2023/06/29 08:12:56;;;;;;;6.60;6.00;;;;;;;25.81;100.00;94238.28;5072644;28;20112;-78
2023/06/29 08:15:21;;;;;;;7.30;5.80;;;;;;;25.89;100.00;94221.56;5070062;28;20017;-78
2023/06/29 08:17:46;;;;;;;7.65;6.18;;;;;;;25.60;100.00;94268.78;5067596;28;20595;-78
2023/06/29 08:20:12;;;;;;;11.57;6.22;;;;;;;25.85;100.00;94259.00;5070983;28;20434;-78
2023/06/29 08:22:45;;;;;;;8.50;6.18;;;;;;;25.44;100.00;94307.56;5068224;28;20107;-78
2023/06/29 08:25:10;;;;;;;6.22;5.63;;;;;;;25.59;100.00;94349.88;5063446;28;20025;-78
2023/06/29 08:27:36;;;;;;;7.47;5.22;;;;;;;25.99;100.00;94385.97;5067917;28;20039;-78
2023/06/29 08:30:02;;;;;;;11.05;5.30;;;;;;;25.85;100.00;94420.75;5065268;28;20037;-78
2023/06/29 08:32:27;;;;;;;5.80;5.22;;;;;;;25.41;100.00;94405.88;5074046;28;20123;-78
2023/06/29 08:34:53;;;;;;;6.47;5.40;;;;;;;25.60;100.00;94381.94;5056334;28;20056;-78
2023/06/29 08:37:19;;;;;;;6.68;6.03;;;;;;;25.80;100.00;94377.63;5056476;28;20036;-78
2023/06/29 08:39:45;;;;;;;6.15;5.55;;;;;;;25.86;100.00;94411.59;5065665;28;20032;-78
2023/06/29 08:42:10;;;;;;;7.22;5.82;;;;;;;25.73;100.00;94396.75;5067387;28;20049;-79
2023/06/29 08:44:36;;;;;;;5.75;5.25;;;;;;;26.20;100.00;94404.03;5071120;28;20045;-78
2023/06/29 08:47:02;;;;;;;6.65;5.90;;;;;;;26.56;100.00;94414.75;5068038;28;20021;-79
2023/06/29 08:49:28;;;;;;;10.60;6.47;;;;;;;26.44;100.00;94464.41;5075655;28;20032;-78
2023/06/29 08:52:03;;;;;;;7.68;6.88;;;;;;;26.20;100.00;94496.56;5066205;28;20029;-78
2023/06/29 08:54:31;;;;;;;7.50;6.30;;;;;;;26.39;100.00;94429.34;5068678;28;20025;-78
2023/06/29 08:56:59;;;;;;;7.60;5.95;;;;;;;26.33;100.00;94465.53;5067318;28;20107;-78
2023/06/29 08:59:26;;;;;;;5.85;5.35;;;;;;;26.27;100.00;94458.50;5063641;28;20035;-78
2023/06/29 09:01:52;;;;;;;9.13;5.85;;;;;;;26.37;100.00;94479.25;5062071;28;20039;-79
2023/06/29 09:04:17;;;;;;;6.80;5.97;;;;;;;26.57;100.00;94433.34;5062244;28;20028;-78
2023/06/29 09:06:42;;;;;;;5.68;4.38;;;;;;;27.01;100.00;94439.16;5076242;28;20032;-78
2023/06/29 09:09:08;;;;;;;5.32;4.55;;;;;;;27.11;100.00;94449.94;5076653;28;20600;-79
2023/06/29 09:11:35;;;;;;;5.80;4.20;;;;;;;27.54;100.00;94527.84;5075703;28;20024;-79
2023/06/29 09:14:07;;;;;;;5.45;4.28;;;;;;;27.61;100.00;94603.22;5071732;28;20040;-78
2023/06/29 09:16:36;;;;;;;6.78;5.07;;;;;;;26.80;100.00;94557.19;5064837;28;20021;-78
2023/06/29 09:19:05;;;;;;;8.13;4.80;;;;;;;26.24;100.00;94550.75;5061274;28;20029;-78
2023/06/29 09:21:31;;;;;;;5.40;4.88;;;;;;;25.93;100.00;94465.22;5071165;28;20039;-78
2023/06/29 09:23:57;;;;;;;5.47;4.90;;;;;;;25.67;100.00;94467.91;5061775;28;20485;-79
2023/06/29 09:26:26;;;;;;;10.43;5.25;;;;;;;25.89;100.00;94485.72;5077654;28;20032;-79
2023/06/29 09:28:57;;;;;;;9.27;4.38;;;;;;;25.54;100.00;94549.25;5060106;28;20029;-79
2023/06/29 09:31:23;;;;;;;7.05;4.40;;;;;;;25.30;100.00;94493.91;5067575;28;20025;-79
2023/06/29 09:33:48;;;;;;;6.95;4.97;;;;;;;25.78;100.00;94528.00;5060753;28;20031;-81
2023/06/29 09:36:13;;;;;;;5.53;5.03;;;;;;;26.39;100.00;94577.72;5065329;28;20033;-79
2023/06/29 09:38:39;;;;;;;6.32;4.78;;;;;;;26.80;100.00;94617.38;5067048;28;20028;-78
2023/06/29 09:41:06;;;;;;;6.07;4.85;;;;;;;27.00;100.00;94589.59;5064407;28;20028;-78
2023/06/29 09:43:32;;;;;;;5.15;4.65;;;;;;;27.77;100.00;94659.94;5066048;28;20044;-79
2023/06/29 09:46:08;;;;;;;7.50;4.88;;;;;;;27.51;100.00;94605.91;5070747;28;20024;-79
2023/06/29 09:48:44;;;;;;;9.18;5.25;;;;;;;27.65;100.00;94577.25;5075369;28;20020;-79
2023/06/29 09:51:09;;;;;;;6.40;5.57;;;;;;;27.82;100.00;94608.53;5069848;28;20033;-79
2023/06/29 09:53:35;;;;;;;7.40;5.50;;;;;;;27.94;100.00;94629.84;5066090;28;20037;-79
2023/06/29 09:56:02;;;;;;;8.25;5.00;;;;;;;28.10;100.00;94674.66;5063081;28;20028;-79
2023/06/29 09:58:30;;;;;;;6.68;4.75;;;;;;;28.22;100.00;94658.13;5065303;28;20094;-78
2023/06/29 10:00:58;;;;;;;6.25;4.82;;;;;;;27.73;100.00;94587.47;5074956;28;20016;-78
2023/06/29 10:03:26;;;;;;;8.45;4.20;;;;;;;27.57;100.00;94708.34;5065495;28;20040;-79
2023/06/29 10:05:56;;;;;;;5.05;4.22;;;;;;;27.26;100.00;94694.06;5069400;28;20111;-79
2023/06/29 10:08:24;;;;;;;4.93;4.05;;;;;;;27.62;100.00;94741.84;5072478;28;20028;-79
2023/06/29 10:10:56;;;;;;;7.70;3.78;;;;;;;26.85;100.00;94736.19;5073511;28;20035;-79
2023/06/29 10:13:22;;;;;;;5.82;3.80;;;;;;;26.97;100.00;94727.84;5064000;28;20092;-75
2023/06/29 10:15:51;;;;;;;5.28;4.07;;;;;;;26.37;100.00;94817.31;5066231;28;20024;-78
2023/06/29 10:18:26;;;;;;;8.55;3.90;;;;;;;26.45;100.00;94778.22;5073724;28;20032;-78
2023/06/29 10:20:51;;;;;;;3.90;3.55;;;;;;;26.28;100.00;94781.91;5054471;28;20029;-79
2023/06/29 10:23:20;;;;;;;4.45;4.05;;;;;;;26.77;100.00;94816.91;5070204;28;20041;-79
2023/06/29 10:25:50;;;;;;;4.22;3.70;;;;;;;26.57;100.00;94794.97;5073657;28;20493;-77
2023/06/29 10:28:17;;;;;;;9.50;3.67;;;;;;;26.46;100.00;94829.19;5071998;28;20027;-77
2023/06/29 10:30:45;;;;;;;8.25;4.07;;;;;;;27.05;100.00;94825.63;5066505;28;20036;-80
2023/06/29 10:33:10;;;;;;;4.32;3.92;;;;;;;27.70;100.00;94876.50;5068611;28;20036;-76
2023/06/29 10:35:36;;;;;;;5.47;4.03;;;;;;;28.06;100.00;94818.84;5058409;28;20020;-75
2023/06/29 10:38:09;;;;;;;4.72;3.75;;;;;;;28.45;100.00;94870.44;5059158;28;20036;-77
2023/06/29 10:40:45;;;;;;;4.80;4.03;;;;;;;28.86;100.00;94917.41;5070802;28;20028;-76
2023/06/29 10:43:10;;;;;;;6.03;3.85;;;;;;;28.73;100.00;94951.28;5072597;28;20044;-80
2023/06/29 10:45:37;;;;;;;4.75;4.30;;;;;;;28.95;100.00;94997.00;5060954;28;20039;-80
2023/06/29 10:48:04;;;;;;;5.95;4.10;;;;;;;29.15;100.00;95016.97;5056496;28;20033;-82
2023/06/29 10:50:50;;;;;;;5.20;4.13;;;;;;;29.62;100.00;95033.88;5057970;28;20388;-81
2023/06/29 10:53:17;;;;;;;6.88;4.70;;;;;;;29.90;100.00;95064.09;5064931;28;20066;-77
2023/06/29 10:55:51;;;;;;;4.60;4.20;;;;;;;29.89;100.00;95122.16;5072095;28;20662;-77
2023/06/29 10:58:31;;;;;;;8.65;5.43;;;;;;;29.97;100.00;95118.88;5073959;28;20056;-77
2023/06/29 11:00:57;;;;;;;5.82;4.68;;;;;;;30.18;100.00;95154.06;5060706;28;20055;-77
2023/06/29 11:03:24;;;;;;;6.20;5.05;;;;;;;30.13;100.00;95148.66;5071710;28;20032;-77
2023/06/29 11:05:51;;;;;;;5.50;5.00;;;;;;;30.20;100.00;95138.31;5063718;28;20032;-77
2023/06/29 11:08:17;;;;;;;8.65;5.57;;;;;;;30.38;100.00;95136.00;5062128;28;20074;-77
2023/06/29 11:10:42;;;;;;;5.20;4.70;;;;;;;30.45;100.00;95152.81;5059014;28;20500;-78
2023/06/29 11:13:09;;;;;;;4.95;4.55;;;;;;;29.92;100.00;95112.66;5063640;28;20037;-78
2023/06/29 11:15:35;;;;;;;4.90;4.38;;;;;;;29.88;100.00;95132.22;5065917;28;20017;-78
2023/06/29 11:18:06;;;;;;;6.30;4.60;;;;;;;30.11;100.00;95129.94;5071331;28;20525;-78
2023/06/29 11:20:34;;;;;;;8.65;5.18;;;;;;;30.44;100.00;95189.19;5060978;28;20028;-78